createdAt,value
2017-12-22T00:02:07.595Z,29.20
2017-12-22T00:06:51.931Z,31.10
2017-12-22T00:11:36.333Z,29.13
2017-12-22T00:16:20.725Z,29.70
2017-12-22T00:21:08.261Z,32.43
2017-12-22T00:25:52.687Z,29.93
2017-12-22T00:30:37.028Z,30.87
2017-12-22T00:35:21.778Z,30.00
2017-12-22T00:40:07.166Z,28.23
2017-12-22T00:44:51.557Z,34.30
2017-12-22T00:49:35.892Z,35.87
2017-12-22T00:54:20.251Z,38.97
2017-12-22T00:59:08.000Z,45.83
2017-12-22T01:03:52.401Z,36.53
2017-12-22T01:08:37.501Z,37.13
2017-12-22T01:13:21.860Z,35.20
2017-12-22T01:19:11.804Z,41.83
2017-12-22T01:23:56.106Z,39.13
2017-12-22T01:28:40.460Z,44.67
2017-12-22T01:33:24.820Z,40.07
2017-12-22T01:38:09.122Z,36.00
2017-12-22T01:42:53.389Z,34.37
2017-12-22T01:47:38.481Z,39.17
2017-12-22T01:52:23.622Z,38.97
2017-12-22T01:57:08.310Z,39.50
2017-12-22T02:01:52.664Z,35.10
2017-12-22T02:06:37.088Z,32.47
2017-12-22T02:11:21.449Z,31.73
2017-12-22T02:16:06.608Z,28.57
2017-12-22T02:20:51.064Z,24.63
2017-12-22T02:25:35.463Z,24.27
2017-12-22T02:30:19.778Z,22.73
2017-12-22T02:35:06.754Z,23.53
2017-12-22T02:39:51.595Z,22.60
2017-12-22T02:44:36.156Z,25.73
2017-12-22T02:49:20.494Z,23.73
2017-12-22T02:54:07.020Z,26.53
2017-12-22T02:58:51.735Z,24.27
2017-12-22T03:03:36.035Z,26.10
2017-12-22T03:08:20.300Z,27.57
2017-12-22T03:13:07.699Z,25.43
2017-12-22T03:17:51.982Z,25.07
2017-12-22T03:22:36.278Z,26.20
2017-12-22T03:27:21.275Z,25.90
2017-12-22T03:32:07.564Z,27.90
2017-12-22T03:36:51.814Z,26.90
2017-12-22T03:41:37.967Z,25.20
2017-12-22T03:46:22.287Z,26.17
2017-12-22T03:51:06.642Z,26.50
2017-12-22T03:55:50.938Z,27.03
2017-12-22T04:00:35.282Z,25.80
2017-12-22T04:05:19.603Z,29.60
2017-12-22T04:10:07.255Z,28.63
2017-12-22T04:14:51.849Z,25.77
2017-12-22T04:19:36.171Z,29.10
2017-12-22T04:24:20.454Z,25.53
2017-12-22T04:29:06.088Z,28.17
2017-12-22T04:33:50.387Z,28.07
2017-12-22T04:38:34.699Z,26.90
2017-12-22T04:43:19.001Z,26.83
2017-12-22T04:48:06.792Z,26.87
2017-12-22T04:52:51.067Z,27.37
2017-12-22T04:57:35.372Z,27.33
2017-12-22T05:02:19.633Z,24.43
2017-12-22T05:07:07.680Z,28.00
2017-12-22T05:11:51.936Z,26.37
2017-12-22T05:16:36.194Z,25.33
2017-12-22T05:21:21.119Z,26.87
2017-12-22T05:26:07.242Z,29.27
2017-12-22T05:30:51.500Z,30.10
2017-12-22T05:35:35.780Z,33.60
2017-12-22T05:40:20.815Z,30.10
2017-12-22T05:45:09.129Z,26.70
2017-12-22T05:49:54.306Z,27.87
2017-12-22T05:54:40.040Z,26.53
2017-12-22T05:59:24.512Z,24.30
2017-12-22T06:04:08.807Z,24.03
2017-12-22T06:08:53.285Z,20.00
2017-12-22T06:13:38.395Z,22.67
2017-12-22T06:18:22.851Z,21.53
2017-12-22T06:23:07.292Z,23.17
2017-12-22T06:27:51.624Z,24.07
2017-12-22T06:32:36.041Z,22.73
2017-12-22T06:37:20.509Z,22.00
2017-12-22T06:42:06.587Z,23.23
2017-12-22T06:46:51.003Z,23.60
2017-12-22T06:51:35.344Z,23.97
2017-12-22T06:56:21.089Z,24.57
2017-12-22T07:01:07.281Z,22.67
2017-12-22T07:05:53.068Z,23.87
2017-12-22T07:10:40.420Z,25.30
2017-12-22T07:15:25.684Z,22.17
2017-12-22T07:20:10.083Z,24.90
2017-12-22T07:24:54.498Z,22.37
2017-12-22T07:29:39.784Z,25.23
2017-12-22T07:34:24.159Z,22.17
2017-12-22T07:39:08.456Z,22.20
2017-12-22T07:43:52.751Z,21.90
2017-12-22T07:48:39.433Z,22.40
2017-12-22T07:53:25.505Z,22.17
2017-12-22T07:58:11.469Z,21.13
2017-12-22T08:02:56.330Z,21.37
2017-12-22T08:07:44.037Z,18.00
2017-12-22T08:12:30.086Z,21.43
2017-12-22T08:17:16.540Z,20.40
2017-12-22T08:22:05.672Z,19.30
2017-12-22T08:26:50.635Z,19.03
2017-12-22T08:31:44.271Z,19.67
2017-12-22T08:36:35.450Z,20.97
2017-12-22T08:41:22.706Z,17.60
2017-12-22T08:46:15.135Z,17.57
2017-12-22T08:51:07.648Z,17.77
2017-12-22T08:56:12.877Z,21.10
2017-12-22T09:01:17.231Z,16.53
2017-12-22T09:06:16.813Z,19.97
2017-12-22T09:11:10.863Z,19.43
2017-12-22T09:16:11.091Z,22.50
2017-12-22T09:21:08.672Z,24.00
2017-12-22T09:25:59.635Z,25.13
2017-12-22T09:30:56.875Z,24.37
2017-12-22T09:40:56.207Z,24.97
2017-12-22T09:50:49.784Z,24.60
2017-12-22T09:55:34.136Z,24.47
2017-12-22T10:00:19.286Z,25.20
2017-12-22T10:05:06.898Z,25.73
2017-12-22T10:09:52.100Z,26.43
2017-12-22T10:14:39.706Z,24.17
2017-12-22T10:19:25.533Z,23.73
2017-12-22T10:25:14.651Z,26.13
2017-12-22T10:29:59.716Z,27.30
2017-12-22T10:34:45.388Z,22.57
2017-12-22T10:39:33.072Z,26.70
2017-12-22T10:44:20.141Z,27.97
2017-12-22T10:49:08.012Z,28.43
2017-12-22T10:53:52.320Z,33.50
2017-12-22T10:58:51.084Z,32.47
2017-12-22T11:03:35.407Z,32.00
2017-12-22T11:08:32.277Z,31.70
2017-12-22T11:18:32.131Z,35.70
2017-12-22T11:23:38.424Z,33.27
2017-12-22T11:28:39.418Z,31.57
2017-12-22T11:33:45.019Z,33.63
2017-12-22T11:38:39.528Z,33.73
2017-12-22T11:43:28.735Z,32.67
2017-12-22T11:48:25.798Z,34.20
2017-12-22T11:53:23.028Z,33.13
2017-12-22T11:58:26.136Z,34.33
2017-12-22T12:03:22.784Z,35.37
2017-12-22T12:08:15.500Z,38.57
2017-12-22T12:13:19.702Z,37.50
2017-12-22T12:18:32.083Z,38.90
2017-12-22T12:23:40.405Z,40.23
2017-12-22T12:28:31.208Z,35.93
2017-12-22T12:33:30.210Z,39.23
2017-12-22T12:39:37.493Z,38.70
2017-12-22T12:44:38.512Z,39.60
2017-12-22T12:49:31.679Z,37.27
2017-12-22T12:54:28.940Z,39.77
2017-12-22T12:59:24.182Z,42.00
2017-12-22T13:04:32.984Z,38.33
2017-12-22T13:09:28.523Z,38.70
2017-12-22T13:14:18.782Z,41.77
2017-12-22T13:19:13.305Z,37.40
2017-12-22T13:28:51.040Z,34.30
2017-12-22T13:33:37.949Z,30.00
2017-12-22T13:38:24.387Z,30.73
2017-12-22T13:43:10.165Z,29.93
2017-12-22T13:52:53.517Z,30.67
2017-12-22T13:57:39.252Z,25.97
2017-12-22T14:02:23.612Z,26.90
2017-12-22T14:07:08.055Z,27.07
2017-12-22T14:11:52.490Z,27.77
2017-12-22T14:16:37.075Z,27.10
2017-12-22T14:21:21.613Z,25.97
2017-12-22T14:26:07.210Z,24.23
2017-12-22T14:30:51.643Z,22.67
2017-12-22T14:35:37.181Z,22.60
2017-12-22T14:40:21.550Z,26.53
2017-12-22T14:45:07.542Z,27.53
2017-12-22T14:49:51.918Z,28.80
2017-12-22T14:54:36.696Z,32.43
2017-12-22T14:59:21.087Z,34.20
2017-12-22T15:04:07.383Z,33.00
2017-12-22T15:08:52.861Z,32.33
2017-12-22T15:13:37.528Z,29.23
2017-12-22T15:18:22.660Z,33.67
2017-12-22T15:23:08.182Z,30.27
2017-12-22T15:27:53.320Z,29.23
2017-12-22T15:32:37.694Z,28.00
2017-12-22T15:37:22.123Z,22.03
2017-12-22T15:42:07.395Z,23.20
2017-12-22T15:46:52.565Z,25.40
2017-12-22T15:51:36.969Z,26.50
2017-12-22T15:56:21.461Z,26.33
2017-12-22T16:01:10.684Z,22.87
2017-12-22T16:05:55.056Z,24.07
2017-12-22T16:10:39.345Z,22.23
2017-12-22T16:15:25.151Z,21.00
2017-12-22T16:20:09.511Z,21.80
2017-12-22T16:24:53.873Z,22.73
2017-12-22T16:29:38.275Z,21.27
2017-12-22T16:34:22.624Z,20.30
2017-12-22T16:39:07.136Z,19.20
2017-12-22T16:43:51.627Z,19.27
2017-12-22T16:48:36.876Z,22.13
2017-12-22T16:53:22.115Z,18.93
2017-12-22T16:58:07.540Z,18.73
2017-12-22T17:02:52.024Z,20.17
2017-12-22T17:07:36.581Z,20.10
2017-12-22T17:12:20.907Z,16.83
2017-12-22T17:17:07.276Z,19.03
2017-12-22T17:21:51.752Z,20.93
2017-12-22T17:26:36.493Z,21.07
2017-12-22T17:31:21.703Z,17.90
2017-12-22T17:36:08.095Z,18.43
2017-12-22T17:40:52.512Z,16.60
2017-12-22T17:45:36.978Z,17.43
2017-12-22T17:50:21.379Z,16.67
2017-12-22T17:55:07.684Z,24.40
2017-12-22T17:59:52.268Z,14.80
2017-12-22T18:04:36.683Z,15.43
2017-12-22T18:09:21.001Z,13.67
2017-12-22T18:14:06.476Z,15.03
2017-12-22T18:18:50.649Z,16.50
2017-12-22T18:23:42.253Z,16.93
2017-12-22T18:28:26.555Z,17.10
2017-12-22T18:33:10.938Z,17.77
2017-12-22T18:37:55.339Z,15.50
2017-12-22T18:42:40.739Z,16.70
2017-12-22T18:47:25.160Z,18.67
2017-12-22T18:52:09.739Z,20.40
2017-12-22T18:56:55.004Z,19.80
2017-12-22T19:01:39.381Z,16.97
2017-12-22T19:06:23.739Z,22.53
2017-12-22T19:11:08.303Z,22.53
2017-12-22T19:15:54.938Z,20.70
2017-12-22T19:20:39.448Z,21.97
2017-12-22T19:25:24.814Z,18.43
2017-12-22T19:30:09.268Z,17.37
2017-12-22T19:34:53.632Z,18.57
2017-12-22T19:39:38.057Z,18.43
2017-12-22T19:44:23.351Z,14.17
2017-12-22T19:49:08.734Z,14.17
2017-12-22T19:53:53.205Z,10.00
2017-12-22T19:58:37.604Z,7.90
2017-12-22T20:03:27.843Z,9.77
2017-12-22T20:08:12.476Z,7.97
2017-12-22T20:12:56.913Z,10.63
2017-12-22T20:17:41.344Z,10.57
2017-12-22T20:22:27.637Z,9.03
2017-12-22T20:27:12.101Z,10.20
2017-12-22T20:31:56.474Z,9.50
2017-12-22T20:36:40.925Z,10.57
2017-12-22T20:41:25.366Z,11.83
2017-12-22T20:46:09.656Z,11.23
2017-12-22T20:50:54.033Z,9.90
2017-12-22T20:55:38.386Z,9.90
2017-12-22T21:00:22.695Z,9.33
2017-12-22T21:05:07.184Z,12.23
2017-12-22T21:09:52.411Z,12.27
2017-12-22T21:14:37.598Z,8.90
2017-12-22T21:19:22.037Z,11.60
2017-12-22T21:24:07.449Z,12.77
2017-12-22T21:28:52.193Z,7.70
2017-12-22T21:33:37.221Z,11.07
2017-12-22T21:38:22.632Z,9.67
2017-12-22T21:43:07.892Z,9.03
2017-12-22T21:47:52.276Z,8.13
2017-12-22T21:52:36.621Z,8.17
2017-12-22T21:57:21.093Z,8.70
2017-12-22T22:02:09.293Z,8.70
2017-12-22T22:06:54.240Z,8.07
2017-12-22T22:11:38.536Z,11.03
2017-12-22T22:16:22.891Z,8.27
2017-12-22T22:21:07.478Z,7.27
2017-12-22T22:25:51.862Z,8.30
2017-12-22T22:30:36.577Z,8.03
2017-12-22T22:35:20.953Z,7.07
2017-12-22T22:40:07.069Z,9.37
2017-12-22T22:44:52.193Z,7.80
2017-12-22T22:49:36.555Z,7.33
2017-12-22T22:54:21.430Z,6.77
2017-12-22T22:59:06.881Z,6.87
2017-12-22T23:03:52.165Z,7.03
2017-12-22T23:08:37.333Z,7.53
2017-12-22T23:13:23.078Z,7.10
2017-12-22T23:18:07.486Z,6.77
2017-12-22T23:22:51.856Z,9.67
2017-12-22T23:27:36.190Z,6.97
2017-12-22T23:32:20.711Z,7.90
2017-12-22T23:37:07.017Z,8.33
2017-12-22T23:41:52.038Z,6.23
2017-12-22T23:46:36.361Z,8.47
2017-12-22T23:51:20.658Z,9.50
2017-12-22T23:56:08.457Z,11.53
